createdAt,value
2022-12-09T00:02:04.198Z,74.87
2022-12-09T00:04:32.248Z,73.37
2022-12-09T00:06:59.749Z,74.63
2022-12-09T00:09:27.373Z,74.46
2022-12-09T00:11:55.276Z,74.43
2022-12-09T00:14:22.783Z,72.49
2022-12-09T00:16:50.437Z,74.99
2022-12-09T00:19:18.306Z,75.69
2022-12-09T00:21:45.793Z,75.86
2022-12-09T00:24:13.891Z,77.62
2022-12-09T00:26:41.935Z,75.94
2022-12-09T00:29:10.869Z,75.36
2022-12-09T00:31:39.413Z,74.03
2022-12-09T00:34:10.899Z,75.61
2022-12-09T00:36:39.067Z,75.42
2022-12-09T00:39:07.007Z,76.26
2022-12-09T00:41:34.589Z,76.83
2022-12-09T00:44:02.001Z,77.32
2022-12-09T00:46:30.361Z,77.31
2022-12-09T00:48:58.113Z,75.70
2022-12-09T00:51:25.957Z,77.47
2022-12-09T00:53:55.995Z,77.17
2022-12-09T00:56:25.376Z,77.48
2022-12-09T00:58:53.260Z,76.76
2022-12-09T01:01:21.176Z,76.90
2022-12-09T01:03:48.975Z,74.61
2022-12-09T01:06:23.242Z,75.60
2022-12-09T01:08:51.395Z,75.51
2022-12-09T01:11:21.548Z,73.97
2022-12-09T01:13:49.892Z,75.72
2022-12-09T01:16:20.493Z,76.62
2022-12-09T01:18:49.907Z,75.39
2022-12-09T01:21:17.829Z,75.91
2022-12-09T01:23:45.370Z,75.69
2022-12-09T01:26:12.825Z,76.71
2022-12-09T01:28:41.001Z,77.29
2022-12-09T01:31:11.181Z,76.33
2022-12-09T01:33:39.257Z,75.18
2022-12-09T01:36:12.376Z,74.80
2022-12-09T01:38:40.171Z,76.71
2022-12-09T01:41:08.209Z,76.70
2022-12-09T01:43:35.735Z,77.10
2022-12-09T01:46:03.317Z,75.99
2022-12-09T01:48:45.015Z,76.62
2022-12-09T01:51:19.625Z,74.71
2022-12-09T01:53:50.210Z,77.94
2022-12-09T01:56:33.456Z,77.01
2022-12-09T01:59:07.229Z,78.54
2022-12-09T02:01:35.015Z,77.25
2022-12-09T02:04:04.018Z,76.12
2022-12-09T02:06:31.582Z,78.88
2022-12-09T02:08:59.643Z,77.65
2022-12-09T02:11:38.707Z,76.00
2022-12-09T02:14:15.262Z,75.35
2022-12-09T02:17:01.815Z,76.75
2022-12-09T02:19:51.148Z,76.68
2022-12-09T02:22:24.765Z,74.43
2022-12-09T02:25:02.759Z,75.23
2022-12-09T02:27:38.253Z,75.46
2022-12-09T02:30:26.879Z,75.52
2022-12-09T02:33:32.132Z,75.08
2022-12-09T02:36:04.108Z,75.25
2022-12-09T02:38:33.459Z,76.22
2022-12-09T02:41:31.100Z,77.07
2022-12-09T02:44:14.293Z,77.55
2022-12-09T02:46:42.868Z,78.10
2022-12-09T02:49:11.543Z,77.73
2022-12-09T02:51:42.707Z,77.06
2022-12-09T02:54:16.018Z,78.29
2022-12-09T02:56:53.540Z,79.05
2022-12-09T02:59:22.190Z,78.37
2022-12-09T03:02:12.513Z,78.34
2022-12-09T03:04:42.925Z,77.11
2022-12-09T03:07:34.758Z,77.76
2022-12-09T03:10:25.814Z,77.17
2022-12-09T03:13:01.080Z,74.63
2022-12-09T03:15:31.898Z,76.54
2022-12-09T03:18:01.797Z,75.09
2022-12-09T03:20:31.069Z,77.46
2022-12-09T03:23:01.388Z,79.43
2022-12-09T03:25:34.981Z,79.71
2022-12-09T03:28:06.185Z,77.75
2022-12-09T03:30:39.779Z,76.42
2022-12-09T03:33:09.488Z,75.81
2022-12-09T03:35:41.425Z,80.07
2022-12-09T03:38:11.510Z,79.96
2022-12-09T03:40:39.544Z,77.88
2022-12-09T03:43:16.383Z,81.64
2022-12-09T03:45:44.192Z,79.39
2022-12-09T03:48:12.172Z,78.28
2022-12-09T03:50:43.225Z,78.96
2022-12-09T03:53:14.829Z,79.42
2022-12-09T03:55:55.599Z,79.83
2022-12-09T03:58:23.585Z,81.69
2022-12-09T04:00:51.860Z,82.20
2022-12-09T04:03:19.920Z,84.37
2022-12-09T04:05:47.787Z,82.37
2022-12-09T04:08:15.235Z,80.83
2022-12-09T04:10:43.029Z,82.27
2022-12-09T04:13:10.535Z,81.85
2022-12-09T04:15:38.090Z,80.42
2022-12-09T04:18:06.469Z,81.10
2022-12-09T04:20:33.970Z,80.49
2022-12-09T04:23:01.367Z,81.08
2022-12-09T04:25:29.182Z,81.91
2022-12-09T04:27:57.269Z,81.25
2022-12-09T04:30:24.775Z,80.22
2022-12-09T04:32:52.589Z,82.15
2022-12-09T04:35:20.016Z,82.76
2022-12-09T04:37:47.403Z,81.80
2022-12-09T04:40:21.226Z,81.98
2022-12-09T04:42:51.233Z,81.94
2022-12-09T04:45:18.932Z,82.34
2022-12-09T04:47:46.649Z,84.48
2022-12-09T04:50:14.443Z,83.15
2022-12-09T04:52:43.187Z,81.34
2022-12-09T04:55:13.188Z,80.84
2022-12-09T04:57:40.600Z,79.69
2022-12-09T05:00:10.582Z,78.87
2022-12-09T05:02:38.922Z,79.88
2022-12-09T05:05:07.067Z,81.26
2022-12-09T05:07:35.061Z,82.32
2022-12-09T05:10:03.061Z,81.21
2022-12-09T05:12:32.926Z,81.85
2022-12-09T05:15:00.818Z,81.33
2022-12-09T05:17:28.307Z,81.65
2022-12-09T05:19:55.855Z,82.15
2022-12-09T05:22:23.900Z,82.91
2022-12-09T05:24:51.425Z,82.47
2022-12-09T05:27:19.102Z,83.33
2022-12-09T05:29:46.965Z,83.37
2022-12-09T05:32:14.692Z,84.47
2022-12-09T05:34:42.657Z,83.17
2022-12-09T05:37:14.685Z,85.65
2022-12-09T05:39:42.468Z,85.07
2022-12-09T05:42:10.551Z,83.52
2022-12-09T05:44:38.002Z,84.22
2022-12-09T05:47:05.546Z,82.99
2022-12-09T05:49:34.751Z,83.14
2022-12-09T05:52:02.885Z,82.91
2022-12-09T05:54:30.982Z,83.83
2022-12-09T05:57:01.297Z,84.16
2022-12-09T05:59:28.850Z,84.96
2022-12-09T06:01:56.802Z,84.77
2022-12-09T06:04:24.699Z,84.80
2022-12-09T06:06:52.789Z,85.66
2022-12-09T06:09:20.386Z,87.88
2022-12-09T06:11:48.486Z,84.77
2022-12-09T06:14:16.176Z,84.91
2022-12-09T06:16:44.082Z,88.89
2022-12-09T06:19:12.818Z,86.53
2022-12-09T06:21:41.076Z,85.12
2022-12-09T06:24:08.775Z,83.71
2022-12-09T06:26:36.905Z,83.58
2022-12-09T06:29:04.408Z,86.74
2022-12-09T06:31:32.487Z,85.63
2022-12-09T06:34:01.107Z,86.81
2022-12-09T06:36:30.387Z,83.98
2022-12-09T06:39:03.103Z,83.95
2022-12-09T06:41:35.825Z,84.12
2022-12-09T06:44:03.524Z,86.48
2022-12-09T06:46:31.348Z,87.27
2022-12-09T06:48:59.493Z,87.99
2022-12-09T06:51:27.463Z,87.35
2022-12-09T06:53:55.370Z,87.91
2022-12-09T06:56:23.419Z,87.67
2022-12-09T06:58:51.289Z,87.92
2022-12-09T07:01:24.776Z,86.65
2022-12-09T07:03:55.736Z,88.97
2022-12-09T07:06:40.281Z,89.13
2022-12-09T07:09:11.596Z,87.74
2022-12-09T07:11:40.466Z,88.75
2022-12-09T07:14:08.884Z,91.09
2022-12-09T07:16:36.731Z,89.80
2022-12-09T07:19:04.565Z,88.37
2022-12-09T07:21:33.306Z,87.24
2022-12-09T07:24:02.942Z,85.62
2022-12-09T07:26:32.773Z,89.19
2022-12-09T07:29:05.210Z,90.27
2022-12-09T07:31:33.610Z,87.28
2022-12-09T07:34:02.297Z,85.77
2022-12-09T07:36:32.202Z,83.49
2022-12-09T07:39:02.540Z,84.23
2022-12-09T07:41:30.365Z,84.64
2022-12-09T07:43:58.002Z,87.68
2022-12-09T07:46:27.571Z,89.13
2022-12-09T07:48:57.328Z,86.31
2022-12-09T07:51:25.408Z,89.07
2022-12-09T07:53:53.789Z,87.32
2022-12-09T07:56:22.367Z,90.76
2022-12-09T07:58:53.361Z,90.16
2022-12-09T08:01:24.568Z,89.85
2022-12-09T08:03:52.471Z,87.88
2022-12-09T08:06:22.656Z,88.33
2022-12-09T08:08:50.620Z,88.00
2022-12-09T08:11:25.382Z,89.42
2022-12-09T08:13:54.112Z,85.73
2022-12-09T08:16:22.820Z,87.06
2022-12-09T08:18:51.808Z,87.58
2022-12-09T08:21:25.032Z,87.95
2022-12-09T08:23:55.100Z,87.86
2022-12-09T08:26:25.519Z,88.80
2022-12-09T08:28:53.587Z,87.73
2022-12-09T08:31:23.754Z,86.22
2022-12-09T08:33:53.028Z,88.37
2022-12-09T08:36:23.909Z,85.52
2022-12-09T08:38:51.790Z,86.74
2022-12-09T08:41:38.209Z,87.85
2022-12-09T08:44:18.791Z,89.99
2022-12-09T08:46:48.570Z,91.93
2022-12-09T08:49:22.027Z,88.78
2022-12-09T08:51:51.732Z,87.33
2022-12-09T08:54:20.068Z,88.47
2022-12-09T08:56:50.035Z,90.46
2022-12-09T08:59:17.887Z,90.03
2022-12-09T09:01:45.867Z,88.49
2022-12-09T09:04:16.316Z,90.52
2022-12-09T09:06:45.953Z,91.09
2022-12-09T09:09:15.105Z,91.18
2022-12-09T09:11:43.931Z,89.45
2022-12-09T09:14:12.606Z,92.28
2022-12-09T09:16:43.147Z,90.08
2022-12-09T09:19:18.505Z,89.02
2022-12-09T09:21:46.491Z,88.75
2022-12-09T09:24:18.154Z,89.22
2022-12-09T09:26:47.110Z,87.36
2022-12-09T09:29:16.720Z,87.57
2022-12-09T09:31:44.882Z,86.97
2022-12-09T09:34:14.211Z,86.57
2022-12-09T09:36:42.223Z,86.88
2022-12-09T09:39:10.459Z,86.86
2022-12-09T09:42:00.441Z,87.04
2022-12-09T09:44:34.790Z,85.50
2022-12-09T09:47:05.719Z,90.23
2022-12-09T09:49:56.376Z,87.80
2022-12-09T09:52:26.808Z,89.35
2022-12-09T09:54:56.332Z,86.31
2022-12-09T09:57:41.150Z,90.65
2022-12-09T10:00:26.652Z,87.80
2022-12-09T10:03:04.953Z,89.10
2022-12-09T10:05:35.886Z,87.75
2022-12-09T10:08:29.052Z,87.69
2022-12-09T10:11:04.832Z,87.27
2022-12-09T10:13:52.515Z,86.11
2022-12-09T10:16:27.225Z,86.99
2022-12-09T10:19:02.616Z,90.51
2022-12-09T10:21:38.725Z,90.04
2022-12-09T10:24:20.637Z,92.33
2022-12-09T10:26:58.916Z,91.01
2022-12-09T10:29:49.359Z,91.79
2022-12-09T10:32:20.558Z,94.39
2022-12-09T10:34:48.924Z,93.10
2022-12-09T10:37:33.188Z,92.28
2022-12-09T10:40:18.090Z,92.56
2022-12-09T10:43:08.089Z,92.83
2022-12-09T10:46:16.778Z,93.11
2022-12-09T10:48:56.224Z,95.24
2022-12-09T10:51:29.906Z,94.83
2022-12-09T10:54:19.314Z,95.50
2022-12-09T10:57:23.499Z,95.15
2022-12-09T11:00:22.878Z,94.16
2022-12-09T11:02:54.838Z,92.69
2022-12-09T11:05:28.660Z,93.23
2022-12-09T11:07:58.377Z,95.39
2022-12-09T11:10:28.538Z,92.76
2022-12-09T11:13:03.801Z,94.40
2022-12-09T11:15:39.005Z,93.15
2022-12-09T11:18:23.882Z,91.87
2022-12-09T11:21:00.971Z,92.74
2022-12-09T11:23:29.957Z,92.78
2022-12-09T11:26:01.857Z,92.79
2022-12-09T11:28:38.440Z,92.87
2022-12-09T11:31:31.870Z,92.90
2022-12-09T11:34:04.468Z,94.27
2022-12-09T11:36:36.775Z,92.96
2022-12-09T11:39:16.251Z,92.60
2022-12-09T11:42:16.123Z,92.52
2022-12-09T11:44:56.725Z,92.81
2022-12-09T11:48:20.318Z,92.90
2022-12-09T11:50:33.176Z,93.66
2022-12-09T11:53:13.032Z,94.15
2022-12-09T11:55:46.388Z,93.79
2022-12-09T11:58:23.684Z,93.34
2022-12-09T12:00:57.066Z,91.78
2022-12-09T12:03:41.279Z,92.63
2022-12-09T12:06:24.439Z,92.75
2022-12-09T12:09:00.991Z,93.94
2022-12-09T12:11:34.694Z,93.20
2022-12-09T12:14:15.282Z,95.20
2022-12-09T12:16:52.772Z,95.83
2022-12-09T12:19:39.775Z,95.37
2022-12-09T12:22:25.412Z,92.65
2022-12-09T12:25:30.138Z,94.03
2022-12-09T12:28:00.467Z,93.83
2022-12-09T12:30:56.918Z,94.02
2022-12-09T12:34:16.160Z,95.60
2022-12-09T12:36:44.665Z,94.90
2022-12-09T12:39:42.891Z,95.22
2022-12-09T12:43:04.486Z,95.31
2022-12-09T12:45:58.295Z,94.05
2022-12-09T12:49:03.132Z,95.81
2022-12-09T12:51:43.240Z,95.01
2022-12-09T12:54:26.451Z,95.19
2022-12-09T12:57:02.656Z,97.04
2022-12-09T12:59:40.637Z,98.74
2022-12-09T13:02:33.020Z,97.08
2022-12-09T13:05:04.397Z,97.71
2022-12-09T13:07:34.173Z,96.27
2022-12-09T13:10:21.712Z,96.81
2022-12-09T13:12:54.027Z,99.03
2022-12-09T13:15:25.771Z,96.87
2022-12-09T13:17:53.991Z,99.10
2022-12-09T13:20:28.737Z,98.11
2022-12-09T13:23:17.747Z,98.58
2022-12-09T13:26:18.848Z,98.56
2022-12-09T13:28:54.798Z,97.10
2022-12-09T13:31:28.316Z,94.97
2022-12-09T13:34:14.626Z,95.25
2022-12-09T13:36:47.402Z,95.54
2022-12-09T13:39:39.529Z,95.65
2022-12-09T13:42:46.346Z,98.51
2022-12-09T13:45:34.114Z,97.42
2022-12-09T13:48:08.695Z,96.29
2022-12-09T13:50:44.814Z,97.64
2022-12-09T13:53:21.634Z,97.58
2022-12-09T13:56:07.954Z,97.55
2022-12-09T13:59:03.050Z,96.21
2022-12-09T14:01:48.792Z,95.44
2022-12-09T14:04:26.591Z,98.25
2022-12-09T14:07:26.316Z,96.55
2022-12-09T14:09:55.380Z,97.75
2022-12-09T14:12:25.631Z,98.61
2022-12-09T14:14:54.565Z,98.65
2022-12-09T14:17:25.099Z,99.55
2022-12-09T14:19:52.375Z,97.10
2022-12-09T14:22:22.492Z,96.50
2022-12-09T14:24:54.905Z,95.75
2022-12-09T14:27:30.186Z,94.82
2022-12-09T14:30:00.081Z,93.49
2022-12-09T14:32:37.821Z,95.66
2022-12-09T14:35:06.309Z,97.76
2022-12-09T14:37:50.086Z,98.14
2022-12-09T14:40:39.178Z,98.80
2022-12-09T14:43:31.314Z,95.34
2022-12-09T14:46:04.227Z,97.75
2022-12-09T14:48:34.685Z,97.94
2022-12-09T14:51:20.374Z,99.01
2022-12-09T14:54:01.806Z,99.28
2022-12-09T14:56:30.969Z,99.90
2022-12-09T14:59:05.878Z,100.00
2022-12-09T15:01:59.111Z,98.12
2022-12-09T15:04:32.760Z,98.14
2022-12-09T15:07:06.624Z,97.98
2022-12-09T15:09:34.408Z,96.35
2022-12-09T15:12:02.267Z,99.16
2022-12-09T15:14:29.713Z,98.16
2022-12-09T15:16:58.372Z,98.17
2022-12-09T15:19:58.773Z,100.00
2022-12-09T15:22:33.168Z,98.16
2022-12-09T15:25:03.412Z,97.69
2022-12-09T15:27:31.573Z,98.78
2022-12-09T15:29:59.417Z,96.21
2022-12-09T15:32:29.766Z,95.88
2022-12-09T15:35:16.783Z,100.00
2022-12-09T15:37:45.806Z,98.14
2022-12-09T15:40:18.111Z,98.61
2022-12-09T15:42:51.124Z,100.00
2022-12-09T15:45:22.355Z,99.16
2022-12-09T15:48:12.564Z,97.91
2022-12-09T15:50:46.301Z,97.63
2022-12-09T15:53:23.269Z,98.61
2022-12-09T15:56:36.045Z,97.82
2022-12-09T15:59:17.572Z,97.28
2022-12-09T16:01:54.371Z,96.59
2022-12-09T16:04:27.796Z,95.59
2022-12-09T16:06:57.073Z,94.67
2022-12-09T16:09:24.931Z,95.84
2022-12-09T16:11:56.345Z,95.77
2022-12-09T16:14:26.749Z,95.27
2022-12-09T16:17:02.455Z,96.18
2022-12-09T16:19:41.148Z,97.96
2022-12-09T16:22:29.595Z,97.99
2022-12-09T16:25:22.458Z,96.88
2022-12-09T16:28:00.930Z,95.07
2022-12-09T16:30:32.908Z,95.74
2022-12-09T16:33:03.054Z,97.64
2022-12-09T16:35:45.357Z,96.99
2022-12-09T16:38:19.800Z,97.64
2022-12-09T16:40:48.769Z,97.13
2022-12-09T16:43:17.851Z,96.98
2022-12-09T16:46:01.499Z,96.64
2022-12-09T16:48:31.291Z,95.27
2022-12-09T16:51:12.037Z,97.08
2022-12-09T16:53:45.857Z,93.57
2022-12-09T16:56:23.263Z,94.19
2022-12-09T16:58:52.523Z,95.95
2022-12-09T17:01:22.505Z,98.03
2022-12-09T17:03:54.523Z,98.09
2022-12-09T17:06:23.776Z,98.16
2022-12-09T17:08:52.212Z,96.06
2022-12-09T17:11:22.322Z,95.83
2022-12-09T17:13:51.547Z,97.39
2022-12-09T17:16:27.103Z,98.14
2022-12-09T17:18:55.679Z,97.44
2022-12-09T17:21:25.392Z,96.38
2022-12-09T17:23:54.349Z,97.73
2022-12-09T17:26:23.911Z,97.41
2022-12-09T17:28:58.256Z,96.13
2022-12-09T17:31:30.836Z,95.70
2022-12-09T17:33:59.086Z,96.41
2022-12-09T17:36:27.463Z,98.29
2022-12-09T17:39:00.399Z,95.53
2022-12-09T17:41:29.183Z,94.12
2022-12-09T17:44:05.680Z,95.33
2022-12-09T17:46:34.319Z,95.71
2022-12-09T17:49:04.779Z,95.50
2022-12-09T17:51:36.289Z,97.50
2022-12-09T17:54:08.435Z,94.73
2022-12-09T17:56:36.121Z,94.63
2022-12-09T17:59:08.792Z,93.18
2022-12-09T18:01:37.690Z,94.06
2022-12-09T18:04:09.851Z,94.70
2022-12-09T18:06:43.282Z,95.43
2022-12-09T18:09:13.416Z,95.16
2022-12-09T18:11:41.589Z,94.28
2022-12-09T18:14:10.299Z,93.61
2022-12-09T18:16:40.855Z,95.92
2022-12-09T18:19:13.520Z,94.63
2022-12-09T18:21:41.860Z,93.59
2022-12-09T18:24:09.900Z,93.18
2022-12-09T18:26:41.561Z,96.35
2022-12-09T18:29:13.017Z,96.11
2022-12-09T18:31:41.607Z,93.77
2022-12-09T18:34:10.596Z,92.48
2022-12-09T18:36:38.324Z,94.91
2022-12-09T18:39:06.831Z,92.91
2022-12-09T18:41:35.386Z,93.10
2022-12-09T18:44:09.802Z,93.60
2022-12-09T18:46:45.015Z,95.10
2022-12-09T18:49:14.323Z,93.97
2022-12-09T18:51:45.918Z,94.68
2022-12-09T18:54:20.698Z,95.22
2022-12-09T18:56:48.757Z,95.56
2022-12-09T18:59:17.856Z,97.08
2022-12-09T19:01:50.997Z,96.84
2022-12-09T19:04:22.587Z,97.92
2022-12-09T19:06:53.205Z,96.34
2022-12-09T19:09:24.893Z,95.77
2022-12-09T19:11:54.910Z,94.65
2022-12-09T19:14:24.552Z,95.50
2022-12-09T19:16:55.274Z,95.21
2022-12-09T19:19:26.525Z,94.26
2022-12-09T19:21:55.627Z,95.22
2022-12-09T19:24:26.146Z,95.79
2022-12-09T19:26:57.193Z,95.23
2022-12-09T19:29:28.463Z,93.69
2022-12-09T19:31:58.141Z,92.73
2022-12-09T19:34:29.759Z,92.68
2022-12-09T19:37:00.873Z,92.94
2022-12-09T19:39:31.930Z,92.77
2022-12-09T19:42:01.152Z,93.18
2022-12-09T19:44:59.396Z,93.53
2022-12-09T19:47:20.099Z,91.88
2022-12-09T19:49:49.902Z,92.01
2022-12-09T19:52:18.902Z,92.86
2022-12-09T19:54:49.001Z,94.93
2022-12-09T19:57:18.919Z,92.96
2022-12-09T19:59:47.696Z,93.93
2022-12-09T20:02:16.190Z,94.78
2022-12-09T20:04:49.063Z,94.94
2022-12-09T20:07:19.536Z,95.62
2022-12-09T20:09:50.329Z,95.31
2022-12-09T20:12:19.615Z,91.85
2022-12-09T20:14:48.927Z,93.66
2022-12-09T20:17:17.793Z,96.67
2022-12-09T20:19:45.935Z,97.16
2022-12-09T20:22:20.011Z,95.59
2022-12-09T20:24:48.709Z,94.60
2022-12-09T20:27:17.901Z,96.77
2022-12-09T20:29:46.519Z,97.13
2022-12-09T20:32:15.241Z,95.22
2022-12-09T20:34:44.417Z,96.83
2022-12-09T20:37:13.111Z,96.89
2022-12-09T20:39:41.661Z,93.04
2022-12-09T20:42:10.274Z,92.39
2022-12-09T20:44:38.445Z,93.98
2022-12-09T20:47:08.141Z,96.73
2022-12-09T20:49:38.014Z,94.55
2022-12-09T20:52:05.962Z,93.19
2022-12-09T20:54:40.099Z,95.07
2022-12-09T20:57:10.622Z,96.68
2022-12-09T20:59:38.950Z,93.00
2022-12-09T21:02:13.452Z,94.15
2022-12-09T21:04:42.600Z,92.59
2022-12-09T21:07:11.182Z,93.70
2022-12-09T21:09:39.446Z,93.23
2022-12-09T21:12:08.307Z,90.42
2022-12-09T21:14:37.418Z,92.93
2022-12-09T21:17:05.818Z,94.42
2022-12-09T21:19:34.946Z,91.90
2022-12-09T21:22:04.978Z,90.89
2022-12-09T21:24:34.339Z,87.36
2022-12-09T21:27:04.947Z,90.38
2022-12-09T21:29:33.524Z,91.07
2022-12-09T21:32:02.534Z,92.92
2022-12-09T21:34:31.777Z,91.24
2022-12-09T21:37:00.218Z,96.02
2022-12-09T21:39:29.649Z,92.33
2022-12-09T21:41:58.792Z,98.69
2022-12-09T21:44:27.559Z,93.30
2022-12-09T21:46:55.520Z,95.85
2022-12-09T21:49:24.372Z,93.83
2022-12-09T21:51:52.395Z,90.94
2022-12-09T21:54:19.744Z,90.44
2022-12-09T21:56:47.437Z,87.58
2022-12-09T21:59:14.899Z,89.53
2022-12-09T22:01:43.023Z,87.93
2022-12-09T22:04:12.935Z,91.29
2022-12-09T22:06:40.472Z,88.72
2022-12-09T22:09:09.791Z,89.74
2022-12-09T22:11:38.438Z,86.99
2022-12-09T22:14:07.576Z,89.29
2022-12-09T22:16:40.725Z,89.18
2022-12-09T22:19:12.981Z,90.23
2022-12-09T22:21:40.364Z,88.17
2022-12-09T22:24:09.271Z,87.27
2022-12-09T22:26:36.987Z,87.16
2022-12-09T22:29:05.346Z,86.46
2022-12-09T22:31:36.411Z,85.05
2022-12-09T22:34:15.218Z,84.39
2022-12-09T22:36:43.338Z,84.21
2022-12-09T22:39:14.366Z,83.57
2022-12-09T22:41:43.442Z,83.57
2022-12-09T22:44:15.498Z,83.57
2022-12-09T22:46:43.051Z,83.52
2022-12-09T22:49:12.781Z,83.28
2022-12-09T22:51:40.163Z,84.87
2022-12-09T22:54:08.383Z,81.96
2022-12-09T22:56:38.154Z,85.52
2022-12-09T22:59:05.762Z,81.49
2022-12-09T23:01:35.635Z,82.83
2022-12-09T23:04:04.960Z,83.16
2022-12-09T23:06:35.425Z,82.70
2022-12-09T23:09:03.736Z,82.60
2022-12-09T23:11:31.627Z,83.00
2022-12-09T23:14:00.110Z,83.80
2022-12-09T23:16:28.363Z,83.66
2022-12-09T23:18:57.226Z,83.94
2022-12-09T23:21:27.462Z,83.08
2022-12-09T23:23:58.319Z,84.57
2022-12-09T23:26:28.107Z,85.69
2022-12-09T23:28:58.055Z,85.80
2022-12-09T23:31:29.465Z,82.55
2022-12-09T23:33:57.509Z,81.70
2022-12-09T23:36:27.508Z,83.03
2022-12-09T23:38:55.086Z,82.83
2022-12-09T23:41:23.666Z,82.92
2022-12-09T23:43:51.960Z,83.60
2022-12-09T23:46:25.014Z,83.59
2022-12-09T23:48:54.059Z,84.01
2022-12-09T23:51:25.371Z,82.24
2022-12-09T23:53:55.826Z,82.88
2022-12-09T23:56:25.675Z,81.62
2022-12-09T23:58:55.520Z,82.02
